createdAt,value
2019-03-16T00:02:01.724Z,99489.70
2019-03-16T00:04:32.219Z,99480.41
2019-03-16T00:07:02.706Z,99472.41
2019-03-16T00:09:33.190Z,99465.34
2019-03-16T00:12:03.825Z,99461.64
2019-03-16T00:14:34.302Z,99454.88
2019-03-16T00:17:04.786Z,99452.41
2019-03-16T00:19:35.227Z,99452.72
2019-03-16T00:22:06.550Z,99452.82
2019-03-16T00:24:37.346Z,99444.77
2019-03-16T00:27:08.117Z,99448.31
2019-03-16T00:29:38.865Z,99448.23
2019-03-16T00:32:13.737Z,99444.55
2019-03-16T00:34:42.130Z,99448.30
2019-03-16T00:37:12.830Z,99452.18
2019-03-16T00:39:43.536Z,99453.59
2019-03-16T00:42:14.208Z,99451.34
2019-03-16T00:44:44.969Z,99449.64
2019-03-16T00:47:15.630Z,99454.64
2019-03-16T00:49:46.207Z,99455.23
2019-03-16T00:52:16.668Z,99457.41
2019-03-16T00:54:47.374Z,99453.15
2019-03-16T00:57:18.176Z,99451.94
2019-03-16T00:59:48.986Z,99449.82
2019-03-16T01:02:26.992Z,99444.89
2019-03-16T01:04:52.023Z,99442.25
2019-03-16T01:07:22.785Z,99438.78
2019-03-16T01:09:53.576Z,99438.47
2019-03-16T01:12:24.263Z,99443.71
2019-03-16T01:14:54.929Z,99442.76
2019-03-16T01:17:25.570Z,99444.25
2019-03-16T01:19:56.504Z,99450.36
2019-03-16T01:22:27.202Z,99441.20
2019-03-16T01:24:57.904Z,99437.66
2019-03-16T01:27:28.566Z,99433.77
2019-03-16T01:29:59.454Z,99429.27
2019-03-16T01:32:39.935Z,99437.37
2019-03-16T01:35:02.494Z,99432.95
2019-03-16T01:37:33.154Z,99444.95
2019-03-16T01:40:03.932Z,99451.87
2019-03-16T01:42:34.371Z,99453.16
2019-03-16T01:45:05.657Z,99451.06
2019-03-16T01:47:36.431Z,99456.24
2019-03-16T01:50:07.365Z,99458.67
2019-03-16T01:52:37.816Z,99465.64
2019-03-16T01:55:08.582Z,99457.16
2019-03-16T01:57:39.039Z,99456.41
2019-03-16T02:00:10.417Z,99462.44
2019-03-16T02:02:53.709Z,99461.22
2019-03-16T02:05:13.167Z,99467.09
2019-03-16T02:07:43.998Z,99468.37
2019-03-16T02:10:14.759Z,99469.07
2019-03-16T02:12:45.469Z,99480.75
2019-03-16T02:15:16.263Z,99484.17
2019-03-16T02:17:47.206Z,99478.77
2019-03-16T02:20:17.946Z,99480.97
2019-03-16T02:22:48.711Z,99482.77
2019-03-16T02:25:19.450Z,99487.81
2019-03-16T02:27:50.149Z,99489.14
2019-03-16T02:30:20.795Z,99481.19
2019-03-16T02:32:51.555Z,99489.36
2019-03-16T02:35:22.258Z,99477.14
2019-03-16T02:37:52.959Z,99471.89
2019-03-16T02:40:23.445Z,99466.37
2019-03-16T02:42:54.361Z,99467.41
2019-03-16T02:45:25.138Z,99465.36
2019-03-16T02:47:55.796Z,99468.63
2019-03-16T02:50:26.271Z,99463.52
2019-03-16T02:52:56.725Z,99466.15
2019-03-16T02:55:27.163Z,99472.44
2019-03-16T02:57:57.661Z,99461.13
2019-03-16T03:00:28.403Z,99463.89
2019-03-16T03:02:59.057Z,99462.03
2019-03-16T03:05:29.801Z,99465.33
2019-03-16T03:08:00.312Z,99464.89
2019-03-16T03:10:30.753Z,99462.69
2019-03-16T03:13:01.585Z,99472.23
2019-03-16T03:15:32.227Z,99465.55
2019-03-16T03:18:03.234Z,99467.14
2019-03-16T03:20:33.998Z,99474.63
2019-03-16T03:23:04.816Z,99475.53
2019-03-16T03:25:35.551Z,99469.55
2019-03-16T03:28:06.379Z,99477.02
2019-03-16T03:30:37.161Z,99471.31
2019-03-16T03:33:07.961Z,99476.49
2019-03-16T03:35:38.757Z,99474.33
2019-03-16T03:38:09.310Z,99471.50
2019-03-16T03:40:40.069Z,99467.37
2019-03-16T03:43:10.720Z,99470.84
2019-03-16T03:45:41.516Z,99463.09
2019-03-16T03:48:12.265Z,99458.98
2019-03-16T03:50:43.034Z,99447.12
2019-03-16T03:53:13.766Z,99459.64
2019-03-16T03:55:44.572Z,99461.69
2019-03-16T03:58:15.394Z,99468.33
2019-03-16T04:00:45.984Z,99479.59
2019-03-16T04:03:16.574Z,99478.92
2019-03-16T04:05:47.110Z,99475.98
2019-03-16T04:08:17.663Z,99478.25
2019-03-16T04:10:48.133Z,99478.40
2019-03-16T04:13:18.581Z,99481.10
2019-03-16T04:15:49.034Z,99480.50
2019-03-16T04:18:19.471Z,99472.47
2019-03-16T04:20:49.984Z,99483.89
2019-03-16T04:23:20.417Z,99478.78
2019-03-16T04:25:50.902Z,99489.13
2019-03-16T04:28:21.355Z,99483.49
2019-03-16T04:30:51.842Z,99479.86
2019-03-16T04:33:22.288Z,99479.20
2019-03-16T04:35:52.772Z,99473.98
2019-03-16T04:38:23.228Z,99469.90
2019-03-16T04:40:53.732Z,99456.02
2019-03-16T04:43:24.450Z,99452.06
2019-03-16T04:45:55.110Z,99448.34
2019-03-16T04:48:25.951Z,99435.05
2019-03-16T04:50:56.722Z,99429.87
2019-03-16T04:53:27.631Z,99424.42
2019-03-16T04:55:58.427Z,99426.94
2019-03-16T04:58:29.114Z,99417.61
2019-03-16T05:00:59.939Z,99411.95
2019-03-16T05:03:30.849Z,99407.63
2019-03-16T05:06:01.562Z,99417.66
2019-03-16T05:08:32.335Z,99414.63
2019-03-16T05:11:02.909Z,99418.57
2019-03-16T05:13:33.577Z,99424.31
2019-03-16T05:16:04.342Z,99431.07
2019-03-16T05:18:35.188Z,99439.88
2019-03-16T05:21:06.084Z,99445.54
2019-03-16T05:23:36.821Z,99457.22
2019-03-16T05:26:07.637Z,99450.78
2019-03-16T05:28:38.114Z,99445.94
2019-03-16T05:31:08.595Z,99450.24
2019-03-16T05:33:39.041Z,99458.09
2019-03-16T05:36:09.724Z,99462.30
2019-03-16T05:38:40.550Z,99451.00
2019-03-16T05:41:11.260Z,99456.55
2019-03-16T05:43:41.853Z,99456.08
2019-03-16T05:46:12.910Z,99457.52
2019-03-16T05:48:43.663Z,99457.85
2019-03-16T05:51:14.374Z,99458.11
2019-03-16T05:53:45.252Z,99465.57
2019-03-16T05:56:16.094Z,99461.63
2019-03-16T05:58:46.651Z,99471.28
2019-03-16T06:01:18.750Z,99477.05
2019-03-16T06:03:49.447Z,99470.17
2019-03-16T06:06:20.290Z,99471.41
2019-03-16T06:08:50.889Z,99474.30
2019-03-16T06:11:24.333Z,99463.94
2019-03-16T06:13:55.154Z,99464.45
2019-03-16T06:16:25.848Z,99457.12
2019-03-16T06:18:58.468Z,99458.39
2019-03-16T06:21:29.044Z,99466.38
2019-03-16T06:24:01.742Z,99481.71
2019-03-16T06:26:32.461Z,99491.15
2019-03-16T06:29:02.852Z,99504.67
2019-03-16T06:31:33.420Z,99528.23
2019-03-16T06:34:04.078Z,99530.98
2019-03-16T06:36:34.834Z,99530.30
2019-03-16T06:39:07.948Z,99543.52
2019-03-16T06:41:38.372Z,99558.36
2019-03-16T06:44:09.217Z,99560.08
2019-03-16T06:46:39.623Z,99561.64
2019-03-16T06:49:10.306Z,99566.98
2019-03-16T06:51:41.244Z,99557.69
2019-03-16T06:54:12.162Z,99556.23
2019-03-16T06:56:42.812Z,99544.06
2019-03-16T06:59:13.501Z,99543.75
2019-03-16T07:01:44.187Z,99544.09
2019-03-16T07:04:14.883Z,99542.80
2019-03-16T07:06:46.700Z,99529.78
2019-03-16T07:09:19.411Z,99518.14
2019-03-16T07:11:49.941Z,99518.13
2019-03-16T07:14:20.486Z,99512.14
2019-03-16T07:17:01.593Z,99509.17
2019-03-16T07:19:23.042Z,99507.86
2019-03-16T07:21:53.887Z,99513.73
2019-03-16T07:24:26.601Z,99509.11
2019-03-16T07:26:57.434Z,99498.19
2019-03-16T07:29:28.396Z,99490.35
2019-03-16T07:31:58.837Z,99484.41
2019-03-16T07:34:31.517Z,99473.15
2019-03-16T07:37:01.972Z,99463.01
2019-03-16T07:39:32.365Z,99446.23
2019-03-16T07:42:02.930Z,99452.00
2019-03-16T07:44:33.318Z,99451.28
2019-03-16T07:47:03.846Z,99443.23
2019-03-16T07:49:34.245Z,99452.88
2019-03-16T07:52:05.786Z,99440.64
2019-03-16T07:54:36.183Z,99443.43
2019-03-16T07:57:06.579Z,99439.53
2019-03-16T07:59:37.389Z,99450.48
2019-03-16T08:02:07.780Z,99446.16
2019-03-16T08:04:38.211Z,99456.23
2019-03-16T08:07:08.615Z,99462.27
2019-03-16T08:09:39.150Z,99469.88
2019-03-16T08:12:09.539Z,99468.94
2019-03-16T08:14:41.257Z,99460.03
2019-03-16T08:17:11.731Z,99463.31
2019-03-16T08:19:43.548Z,99463.33
2019-03-16T08:22:14.168Z,99465.88
2019-03-16T08:24:46.786Z,99457.41
2019-03-16T08:27:17.476Z,99452.25
2019-03-16T08:29:48.347Z,99461.79
2019-03-16T08:32:19.099Z,99456.89
2019-03-16T08:34:50.207Z,99464.29
2019-03-16T08:37:20.924Z,99464.89
2019-03-16T08:39:51.448Z,99462.72
2019-03-16T08:42:21.951Z,99445.27
2019-03-16T08:44:53.032Z,99448.56
2019-03-16T08:47:23.741Z,99444.17
2019-03-16T08:49:54.461Z,99435.97
2019-03-16T08:52:24.936Z,99417.91
2019-03-16T08:54:55.430Z,99417.64
2019-03-16T08:57:25.999Z,99403.75
2019-03-16T08:59:56.721Z,99399.61
2019-03-16T09:02:27.333Z,99402.30
2019-03-16T09:04:58.022Z,99400.40
2019-03-16T09:07:28.630Z,99402.38
2019-03-16T09:09:59.041Z,99413.00
2019-03-16T09:12:29.479Z,99404.45
2019-03-16T09:15:01.340Z,99392.91
2019-03-16T09:17:31.828Z,99397.83
2019-03-16T09:20:02.258Z,99398.87
2019-03-16T09:22:32.693Z,99388.98
2019-03-16T09:25:03.097Z,99396.90
2019-03-16T09:27:33.521Z,99389.49
2019-03-16T09:30:07.327Z,99371.67
2019-03-16T09:32:38.028Z,99378.55
2019-03-16T09:35:08.723Z,99360.43
2019-03-16T09:37:39.572Z,99380.65
2019-03-16T09:40:10.435Z,99385.03
2019-03-16T09:42:41.173Z,99380.56
2019-03-16T09:45:12.387Z,99371.95
2019-03-16T09:47:43.420Z,99355.97
2019-03-16T09:50:14.194Z,99358.48
2019-03-16T09:52:44.902Z,99357.48
2019-03-16T09:55:25.099Z,99367.23
2019-03-16T09:57:55.482Z,99367.36
2019-03-16T10:00:26.151Z,99348.88
2019-03-16T10:02:57.762Z,99359.73
2019-03-16T10:05:28.344Z,99342.08
2019-03-16T10:07:59.109Z,99338.91
2019-03-16T10:10:31.589Z,99330.02
2019-03-16T10:13:02.036Z,99334.03
2019-03-16T10:15:32.508Z,99347.48
2019-03-16T10:18:03.301Z,99352.16
2019-03-16T10:20:33.789Z,99353.97
2019-03-16T10:23:04.225Z,99344.98
2019-03-16T10:25:34.621Z,99342.58
2019-03-16T10:28:06.148Z,99343.82
2019-03-16T10:30:36.832Z,99336.99
2019-03-16T10:33:07.523Z,99333.22
2019-03-16T10:35:37.921Z,99328.83
2019-03-16T10:38:08.764Z,99320.50
2019-03-16T10:40:39.090Z,99307.39
2019-03-16T10:43:09.479Z,99283.46
2019-03-16T10:45:39.902Z,99276.31
2019-03-16T10:48:11.332Z,99269.69
2019-03-16T10:50:41.760Z,99267.36
2019-03-16T10:53:12.151Z,99268.86
2019-03-16T10:55:42.686Z,99266.69
2019-03-16T10:58:13.175Z,99258.51
2019-03-16T11:00:43.465Z,99253.48
2019-03-16T11:03:13.896Z,99249.36
2019-03-16T11:05:44.425Z,99249.27
2019-03-16T11:08:16.989Z,99236.32
2019-03-16T11:10:48.429Z,99227.41
2019-03-16T11:13:22.062Z,99219.16
2019-03-16T11:15:53.789Z,99216.36
2019-03-16T11:18:25.640Z,99210.16
2019-03-16T11:20:56.644Z,99202.59
2019-03-16T11:23:27.456Z,99204.58
2019-03-16T11:25:57.899Z,99192.96
2019-03-16T11:28:29.150Z,99189.41
2019-03-16T11:30:59.759Z,99182.06
2019-03-16T11:33:30.399Z,99175.70
2019-03-16T11:36:01.059Z,99169.94
2019-03-16T11:38:31.735Z,99169.08
2019-03-16T11:41:02.439Z,99160.48
2019-03-16T11:43:33.064Z,99136.53
2019-03-16T11:46:03.782Z,99154.90
2019-03-16T11:48:34.402Z,99136.67
2019-03-16T11:51:05.277Z,99138.41
2019-03-16T11:53:35.805Z,99149.24
2019-03-16T11:56:17.472Z,99148.50
2019-03-16T11:58:38.843Z,99149.11
2019-03-16T12:01:09.515Z,99146.13
2019-03-16T12:03:39.912Z,99138.27
2019-03-16T12:06:10.344Z,99132.55
2019-03-16T12:08:40.733Z,99113.30
2019-03-16T12:11:11.258Z,99130.82
2019-03-16T12:13:43.869Z,99132.93
2019-03-16T12:16:14.655Z,99135.95
2019-03-16T12:18:46.175Z,99145.57
2019-03-16T12:21:16.703Z,99137.38
2019-03-16T12:23:47.103Z,99144.52
2019-03-16T12:26:20.040Z,99140.70
2019-03-16T12:28:49.961Z,99133.82
2019-03-16T12:31:20.238Z,99138.71
2019-03-16T12:33:56.426Z,99132.84
2019-03-16T12:36:25.916Z,99134.52
2019-03-16T12:38:56.309Z,99125.44
2019-03-16T12:41:26.696Z,99123.45
2019-03-16T12:43:57.414Z,99120.73
2019-03-16T12:46:28.176Z,99109.27
2019-03-16T12:48:58.799Z,99131.24
2019-03-16T12:51:29.666Z,99141.08
2019-03-16T12:54:01.297Z,99144.81
2019-03-16T12:56:31.863Z,99129.45
2019-03-16T12:59:10.361Z,99145.12
2019-03-16T13:01:36.477Z,99149.84
2019-03-16T13:04:07.099Z,99138.84
2019-03-16T13:06:37.528Z,99139.27
2019-03-16T13:09:09.206Z,99144.29
2019-03-16T13:11:39.922Z,99148.27
2019-03-16T13:14:10.555Z,99123.69
2019-03-16T13:16:41.325Z,99148.86
2019-03-16T13:19:12.598Z,99135.94
2019-03-16T13:21:43.963Z,99157.31
2019-03-16T13:24:14.654Z,99151.78
2019-03-16T13:26:45.327Z,99158.34
2019-03-16T13:29:15.757Z,99146.96
2019-03-16T13:31:46.138Z,99170.70
2019-03-16T13:34:16.576Z,99153.69
2019-03-16T13:36:46.963Z,99179.40
2019-03-16T13:39:17.631Z,99172.23
2019-03-16T13:41:48.444Z,99171.91
2019-03-16T13:44:19.175Z,99177.34
2019-03-16T13:46:49.839Z,99186.28
2019-03-16T13:49:20.426Z,99187.19
2019-03-16T13:51:51.279Z,99192.83
2019-03-16T13:54:21.861Z,99200.44
2019-03-16T13:56:52.276Z,99188.73
2019-03-16T13:59:22.662Z,99189.94
2019-03-16T14:01:53.237Z,99182.73
2019-03-16T14:04:23.893Z,99194.06
2019-03-16T14:06:54.569Z,99195.61
2019-03-16T14:09:25.246Z,99196.98
2019-03-16T14:11:55.988Z,99197.92
2019-03-16T14:14:26.596Z,99204.50
2019-03-16T14:16:57.158Z,99207.55
2019-03-16T14:19:27.826Z,99211.17
2019-03-16T14:21:58.220Z,99215.59
2019-03-16T14:24:28.922Z,99223.17
2019-03-16T14:26:59.789Z,99204.30
2019-03-16T14:29:30.463Z,99214.28
2019-03-16T14:32:01.282Z,99211.96
2019-03-16T14:34:31.883Z,99221.79
2019-03-16T14:37:02.575Z,99208.18
2019-03-16T14:39:39.541Z,99216.53
2019-03-16T14:42:10.646Z,99216.80
2019-03-16T14:44:41.508Z,99207.75
2019-03-16T14:47:15.072Z,99214.42
2019-03-16T14:49:46.774Z,99206.31
2019-03-16T14:52:19.375Z,99211.58
2019-03-16T14:54:49.931Z,99206.44
2019-03-16T14:57:20.435Z,99202.28
2019-03-16T14:59:50.955Z,99217.37
2019-03-16T15:02:21.545Z,99206.81
2019-03-16T15:04:52.236Z,99214.19
2019-03-16T15:07:22.948Z,99208.19
2019-03-16T15:09:53.646Z,99210.70
2019-03-16T15:12:24.277Z,99200.30
2019-03-16T15:14:55.011Z,99223.30
2019-03-16T15:17:25.735Z,99223.97
2019-03-16T15:19:56.411Z,99225.70
2019-03-16T15:22:27.049Z,99231.72
2019-03-16T15:24:57.856Z,99227.78
2019-03-16T15:27:28.483Z,99231.94
2019-03-16T15:29:59.155Z,99224.05
2019-03-16T15:32:29.960Z,99245.19
2019-03-16T15:35:00.659Z,99251.44
2019-03-16T15:37:31.565Z,99241.13
2019-03-16T15:40:02.308Z,99239.70
2019-03-16T15:42:33.064Z,99250.27
2019-03-16T15:45:03.875Z,99261.39
2019-03-16T15:47:34.471Z,99264.19
2019-03-16T15:50:05.514Z,99275.88
2019-03-16T15:52:37.566Z,99275.60
2019-03-16T15:55:08.785Z,99271.59
2019-03-16T15:57:42.312Z,99275.77
2019-03-16T16:00:12.861Z,99274.92
2019-03-16T16:02:43.424Z,99282.70
2019-03-16T16:05:13.915Z,99280.59
2019-03-16T16:07:44.667Z,99280.14
2019-03-16T16:10:15.279Z,99274.99
2019-03-16T16:12:46.122Z,99282.42
2019-03-16T16:15:17.003Z,99285.56
2019-03-16T16:17:48.114Z,99284.59
2019-03-16T16:20:18.831Z,99289.66
2019-03-16T16:22:49.569Z,99294.98
2019-03-16T16:25:20.400Z,99280.17
2019-03-16T16:27:51.356Z,99284.68
2019-03-16T16:30:22.150Z,99291.36
2019-03-16T16:32:53.063Z,99295.92
2019-03-16T16:35:23.755Z,99291.63
2019-03-16T16:37:54.604Z,99286.50
2019-03-16T16:40:25.401Z,99292.61
2019-03-16T16:42:56.117Z,99295.63
2019-03-16T16:45:26.943Z,99297.89
2019-03-16T16:47:57.651Z,99307.02
2019-03-16T16:50:28.390Z,99303.79
2019-03-16T16:52:59.156Z,99303.84
2019-03-16T16:55:29.611Z,99311.30
2019-03-16T16:58:00.315Z,99314.61
2019-03-16T17:00:31.094Z,99316.25
2019-03-16T17:03:01.856Z,99311.86
2019-03-16T17:05:32.638Z,99316.27
2019-03-16T17:08:03.337Z,99316.54
2019-03-16T17:10:34.159Z,99319.33
2019-03-16T17:13:05.045Z,99317.27
2019-03-16T17:15:35.677Z,99325.52
2019-03-16T17:18:06.336Z,99337.33
2019-03-16T17:20:36.856Z,99334.59
2019-03-16T17:23:07.315Z,99335.75
2019-03-16T17:25:37.752Z,99326.23
2019-03-16T17:28:08.235Z,99336.45
2019-03-16T17:30:38.691Z,99340.28
2019-03-16T17:33:09.455Z,99348.57
2019-03-16T17:35:40.235Z,99348.14
2019-03-16T17:38:11.043Z,99352.00
2019-03-16T17:40:41.772Z,99359.74
2019-03-16T17:43:12.548Z,99361.73
2019-03-16T17:45:43.242Z,99362.56
2019-03-16T17:48:14.048Z,99367.31
2019-03-16T17:50:44.823Z,99377.11
2019-03-16T17:53:15.433Z,99378.00
2019-03-16T17:55:46.179Z,99373.64
2019-03-16T17:58:16.699Z,99386.56
2019-03-16T18:00:47.339Z,99389.61
2019-03-16T18:03:18.084Z,99387.68
2019-03-16T18:05:48.585Z,99385.52
2019-03-16T18:08:19.080Z,99391.06
2019-03-16T18:10:49.865Z,99389.97
2019-03-16T18:13:20.439Z,99388.88
2019-03-16T18:15:50.908Z,99386.71
2019-03-16T18:18:21.566Z,99393.00
2019-03-16T18:20:52.304Z,99402.55
2019-03-16T18:23:22.953Z,99395.20
2019-03-16T18:25:53.659Z,99392.72
2019-03-16T18:28:24.475Z,99391.11
2019-03-16T18:30:55.342Z,99388.38
2019-03-16T18:33:25.973Z,99396.82
2019-03-16T18:35:56.748Z,99399.59
2019-03-16T18:38:27.622Z,99401.27
2019-03-16T18:40:58.314Z,99407.29
2019-03-16T18:43:29.023Z,99408.63
2019-03-16T18:45:59.861Z,99411.91
2019-03-16T18:48:30.663Z,99422.60
2019-03-16T18:51:01.876Z,99421.80
2019-03-16T18:53:32.671Z,99430.78
2019-03-16T18:56:03.369Z,99434.09
2019-03-16T18:58:37.623Z,99440.38
2019-03-16T19:01:06.506Z,99452.69
2019-03-16T19:03:37.182Z,99450.78
2019-03-16T19:06:07.915Z,99454.88
2019-03-16T19:08:38.616Z,99459.56
2019-03-16T19:11:09.564Z,99460.11
2019-03-16T19:13:40.262Z,99461.49
2019-03-16T19:16:11.170Z,99463.14
2019-03-16T19:18:41.903Z,99471.09
2019-03-16T19:21:12.607Z,99470.80
2019-03-16T19:23:43.108Z,99474.65
2019-03-16T19:26:13.602Z,99477.09
2019-03-16T19:28:44.055Z,99475.46
2019-03-16T19:31:14.547Z,99483.13
2019-03-16T19:33:45.405Z,99482.87
2019-03-16T19:36:16.347Z,99481.78
2019-03-16T19:38:46.969Z,99485.59
2019-03-16T19:41:17.464Z,99487.53
2019-03-16T19:43:50.367Z,99489.74
2019-03-16T19:46:20.163Z,99485.64
2019-03-16T19:48:50.606Z,99483.73
2019-03-16T19:51:21.206Z,99495.48
2019-03-16T19:53:51.682Z,99486.18
2019-03-16T19:56:22.133Z,99492.47
2019-03-16T19:59:00.568Z,99395.58
2019-03-16T20:01:24.772Z,99490.82
2019-03-16T20:03:55.267Z,99509.39
2019-03-16T20:06:26.263Z,99508.84
2019-03-16T20:08:56.845Z,99510.20
2019-03-16T20:11:27.302Z,99511.87
2019-03-16T20:13:57.800Z,99510.20
2019-03-16T20:16:28.362Z,99521.14
2019-03-16T20:18:58.818Z,99525.52
2019-03-16T20:21:29.311Z,99532.35
2019-03-16T20:23:59.775Z,99544.37
2019-03-16T20:26:30.272Z,99547.65
2019-03-16T20:29:00.758Z,99547.08
2019-03-16T20:31:33.373Z,99553.94
2019-03-16T20:34:03.493Z,99558.02
2019-03-16T20:36:34.030Z,99563.25
2019-03-16T20:39:06.546Z,99570.88
2019-03-16T20:41:37.145Z,99566.79
2019-03-16T20:44:07.778Z,99570.59
2019-03-16T20:46:38.239Z,99575.80
2019-03-16T20:49:08.753Z,99585.38
2019-03-16T20:51:39.196Z,99585.66
2019-03-16T20:54:09.683Z,99581.00
2019-03-16T20:56:40.164Z,99590.57
2019-03-16T20:59:10.644Z,99592.75
2019-03-16T21:01:41.103Z,99593.83
2019-03-16T21:04:11.562Z,99600.68
2019-03-16T21:06:42.037Z,99600.13
2019-03-16T21:09:12.536Z,99609.42
2019-03-16T21:11:43.167Z,99616.50
2019-03-16T21:14:13.627Z,99613.22
2019-03-16T21:16:44.120Z,99613.78
2019-03-16T21:19:14.613Z,99616.78
2019-03-16T21:21:45.072Z,99609.95
2019-03-16T21:24:15.581Z,99606.67
2019-03-16T21:26:52.618Z,99612.94
2019-03-16T21:29:18.238Z,99609.38
2019-03-16T21:31:48.714Z,99612.66
2019-03-16T21:34:19.167Z,99613.50
2019-03-16T21:36:49.625Z,99616.77
2019-03-16T21:39:20.067Z,99611.83
2019-03-16T21:41:50.566Z,99617.02
2019-03-16T21:44:21.008Z,99620.05
2019-03-16T21:46:51.503Z,99628.50
2019-03-16T21:49:22.004Z,99625.74
2019-03-16T21:51:52.509Z,99618.91
2019-03-16T21:54:23.040Z,99625.74
2019-03-16T21:56:53.517Z,99630.68
2019-03-16T21:59:26.323Z,99628.50
2019-03-16T22:01:56.136Z,99620.33
2019-03-16T22:04:26.625Z,99626.59
2019-03-16T22:06:57.075Z,99629.06
2019-03-16T22:09:27.567Z,99625.78
2019-03-16T22:11:58.070Z,99629.34
2019-03-16T22:14:28.555Z,99623.89
2019-03-16T22:16:59.030Z,99633.18
2019-03-16T22:19:29.503Z,99639.75
2019-03-16T22:21:59.997Z,99634.54
2019-03-16T22:24:30.623Z,99633.72
2019-03-16T22:27:01.069Z,99627.99
2019-03-16T22:29:31.556Z,99625.25
2019-03-16T22:32:02.003Z,99630.44
2019-03-16T22:34:32.493Z,99635.63
2019-03-16T22:37:02.937Z,99639.47
2019-03-16T22:39:33.435Z,99639.45
2019-03-16T22:42:03.881Z,99643.53
2019-03-16T22:44:34.365Z,99645.45
2019-03-16T22:47:04.893Z,99648.47
2019-03-16T22:49:35.390Z,99637.23
2019-03-16T22:52:05.993Z,99638.61
2019-03-16T22:54:36.444Z,99640.23
2019-03-16T22:57:06.935Z,99636.39
2019-03-16T22:59:37.391Z,99629.84
2019-03-16T23:02:08.151Z,99627.92
2019-03-16T23:04:38.803Z,99625.48
2019-03-16T23:07:09.354Z,99624.64
2019-03-16T23:09:39.878Z,99624.58
2019-03-16T23:12:10.328Z,99622.14
2019-03-16T23:14:40.838Z,99624.61
2019-03-16T23:17:11.295Z,99620.73
2019-03-16T23:19:41.792Z,99621.55
2019-03-16T23:22:12.290Z,99627.27
2019-03-16T23:24:42.794Z,99626.19
2019-03-16T23:27:13.247Z,99634.09
2019-03-16T23:29:43.741Z,99635.16
2019-03-16T23:32:14.286Z,99644.14
2019-03-16T23:34:44.767Z,99633.80
2019-03-16T23:37:15.219Z,99641.97
2019-03-16T23:39:45.710Z,99652.59
2019-03-16T23:42:16.196Z,99649.05
2019-03-16T23:44:46.645Z,99650.67
2019-03-16T23:47:17.291Z,99643.85
2019-03-16T23:49:47.698Z,99640.27
2019-03-16T23:52:18.189Z,99635.92
2019-03-16T23:54:48.648Z,99640.80
2019-03-16T23:57:19.133Z,99640.25
2019-03-16T23:59:49.630Z,99642.36
